createdAt,value
2023-03-16T00:02:18.800Z,5.00
2023-03-16T00:04:42.171Z,5.15
2023-03-16T00:07:08.070Z,5.57
2023-03-16T00:09:31.888Z,5.07
2023-03-16T00:11:55.268Z,5.95
2023-03-16T00:14:18.915Z,5.38
2023-03-16T00:16:42.238Z,5.30
2023-03-16T00:19:06.400Z,5.60
2023-03-16T00:21:30.526Z,5.25
2023-03-16T00:23:55.158Z,4.80
2023-03-16T00:26:18.494Z,4.85
2023-03-16T00:28:42.695Z,5.22
2023-03-16T00:31:08.976Z,5.70
2023-03-16T00:33:34.740Z,5.03
2023-03-16T00:36:03.437Z,4.30
2023-03-16T00:38:26.723Z,5.45
2023-03-16T00:40:51.419Z,4.65
2023-03-16T00:43:18.669Z,4.82
2023-03-16T00:45:45.039Z,4.55
2023-03-16T00:48:08.381Z,5.30
2023-03-16T00:50:31.666Z,5.00
2023-03-16T00:52:55.004Z,4.32
2023-03-16T00:55:19.022Z,4.93
2023-03-16T00:57:43.840Z,4.03
2023-03-16T01:00:13.045Z,4.60
2023-03-16T01:02:37.026Z,4.70
2023-03-16T01:05:00.280Z,4.85
2023-03-16T01:07:24.213Z,5.07
2023-03-16T01:09:48.446Z,4.68
2023-03-16T01:12:14.643Z,4.22
2023-03-16T01:14:40.038Z,4.38
2023-03-16T01:17:03.867Z,4.60
2023-03-16T01:19:27.462Z,4.65
2023-03-16T01:21:50.744Z,4.82
2023-03-16T01:24:14.514Z,4.45
2023-03-16T01:26:37.880Z,4.55
2023-03-16T01:29:02.320Z,4.50
2023-03-16T01:31:28.131Z,4.90
2023-03-16T01:33:52.237Z,3.92
2023-03-16T01:36:20.402Z,4.07
2023-03-16T01:38:49.052Z,4.75
2023-03-16T01:41:13.751Z,4.10
2023-03-16T01:43:39.946Z,4.45
2023-03-16T01:46:22.849Z,4.35
2023-03-16T01:49:01.756Z,4.22
2023-03-16T01:51:33.543Z,4.22
2023-03-16T01:54:04.347Z,4.35
2023-03-16T01:56:34.624Z,4.35
2023-03-16T01:59:00.943Z,4.53
2023-03-16T02:01:24.404Z,4.78
2023-03-16T02:03:47.811Z,4.05
2023-03-16T02:06:23.061Z,4.22
2023-03-16T02:08:55.342Z,4.40
2023-03-16T02:11:18.819Z,3.83
2023-03-16T02:14:05.194Z,4.37
2023-03-16T02:16:28.532Z,4.38
2023-03-16T02:18:52.448Z,4.45
2023-03-16T02:21:27.436Z,4.05
2023-03-16T02:23:51.729Z,3.92
2023-03-16T02:26:24.037Z,4.50
2023-03-16T02:28:55.218Z,4.65
2023-03-16T02:31:22.266Z,4.07
2023-03-16T02:33:48.574Z,4.28
2023-03-16T02:36:12.215Z,4.40
2023-03-16T02:38:35.599Z,4.45
2023-03-16T02:41:02.893Z,4.25
2023-03-16T02:43:33.464Z,4.10
2023-03-16T02:46:29.785Z,4.32
2023-03-16T02:49:03.078Z,3.90
2023-03-16T02:51:26.777Z,4.15
2023-03-16T02:53:51.125Z,3.72
2023-03-16T02:56:15.323Z,4.20
2023-03-16T02:58:39.015Z,4.20
2023-03-16T03:01:07.986Z,4.50
2023-03-16T03:03:34.603Z,3.63
2023-03-16T03:05:57.953Z,3.95
2023-03-16T03:08:22.970Z,4.13
2023-03-16T03:10:49.085Z,4.07
2023-03-16T03:13:12.443Z,3.90
2023-03-16T03:15:37.111Z,3.72
2023-03-16T03:18:04.660Z,3.90
2023-03-16T03:20:30.481Z,3.83
2023-03-16T03:22:54.170Z,3.92
2023-03-16T03:25:18.984Z,3.65
2023-03-16T03:27:43.429Z,4.00
2023-03-16T03:30:11.031Z,3.63
2023-03-16T03:32:34.322Z,4.10
2023-03-16T03:34:58.009Z,3.42
2023-03-16T03:37:24.529Z,3.80
2023-03-16T03:39:48.337Z,4.50
2023-03-16T03:42:12.591Z,4.18
2023-03-16T03:44:36.071Z,3.60
2023-03-16T03:46:59.439Z,4.10
2023-03-16T03:49:23.486Z,4.07
2023-03-16T03:51:47.018Z,4.22
2023-03-16T03:54:15.397Z,3.78
2023-03-16T03:56:47.622Z,3.80
2023-03-16T03:59:13.060Z,4.00
2023-03-16T04:01:59.807Z,3.60
2023-03-16T04:04:33.434Z,3.40
2023-03-16T04:06:56.686Z,3.90
2023-03-16T04:09:21.333Z,3.92
2023-03-16T04:11:45.048Z,4.22
2023-03-16T04:14:08.903Z,3.92
2023-03-16T04:16:35.941Z,3.75
2023-03-16T04:18:59.572Z,3.70
2023-03-16T04:21:23.685Z,3.78
2023-03-16T04:23:47.018Z,3.80
2023-03-16T04:26:11.829Z,3.83
2023-03-16T04:28:36.741Z,3.50
2023-03-16T04:31:05.306Z,3.88
2023-03-16T04:33:33.225Z,4.03
2023-03-16T04:35:56.624Z,3.85
2023-03-16T04:38:20.976Z,3.45
2023-03-16T04:40:51.294Z,3.70
2023-03-16T04:43:19.612Z,4.20
2023-03-16T04:45:44.061Z,3.70
2023-03-16T04:48:08.035Z,4.22
2023-03-16T04:50:31.525Z,3.70
2023-03-16T04:52:54.852Z,3.70
2023-03-16T04:55:18.463Z,4.00
2023-03-16T04:57:41.894Z,4.07
2023-03-16T05:00:11.750Z,5.10
2023-03-16T05:02:42.905Z,3.63
2023-03-16T05:05:08.194Z,3.75
2023-03-16T05:07:33.341Z,3.65
2023-03-16T05:09:56.783Z,3.53
2023-03-16T05:12:20.251Z,3.67
2023-03-16T05:14:48.039Z,3.80
2023-03-16T05:17:22.244Z,3.80
2023-03-16T05:19:45.811Z,3.95
2023-03-16T05:22:10.584Z,3.95
2023-03-16T05:24:37.112Z,3.88
2023-03-16T05:27:03.405Z,3.80
2023-03-16T05:29:27.136Z,4.03
2023-03-16T05:31:50.514Z,4.60
2023-03-16T05:34:18.969Z,4.10
2023-03-16T05:36:42.464Z,4.10
2023-03-16T05:39:10.120Z,3.97
2023-03-16T05:41:38.040Z,4.00
2023-03-16T05:44:24.672Z,4.38
2023-03-16T05:47:00.863Z,5.00
2023-03-16T05:49:26.756Z,3.70
2023-03-16T05:51:50.529Z,4.00
2023-03-16T05:54:13.966Z,4.30
2023-03-16T05:56:42.262Z,4.55
2023-03-16T05:59:05.881Z,4.13
2023-03-16T06:01:29.644Z,4.25
2023-03-16T06:03:53.831Z,4.53
2023-03-16T06:06:24.539Z,4.53
2023-03-16T06:08:59.565Z,4.68
2023-03-16T06:11:24.198Z,4.20
2023-03-16T06:13:47.559Z,4.55
2023-03-16T06:16:11.613Z,4.72
2023-03-16T06:18:35.487Z,4.63
2023-03-16T06:20:59.626Z,5.57
2023-03-16T06:23:24.770Z,4.80
2023-03-16T06:25:49.116Z,5.22
2023-03-16T06:28:13.553Z,5.57
2023-03-16T06:30:36.838Z,5.20
2023-03-16T06:33:00.360Z,5.07
2023-03-16T06:35:23.683Z,5.97
2023-03-16T06:38:01.809Z,4.80
2023-03-16T06:40:55.152Z,5.10
2023-03-16T06:43:19.971Z,4.82
2023-03-16T06:45:44.683Z,5.75
2023-03-16T06:48:09.860Z,5.22
2023-03-16T06:50:33.482Z,5.60
2023-03-16T06:52:57.591Z,5.75
2023-03-16T06:55:21.520Z,5.53
2023-03-16T06:57:47.661Z,5.60
2023-03-16T07:00:15.353Z,5.70
2023-03-16T07:02:40.580Z,6.07
2023-03-16T07:05:05.856Z,5.40
2023-03-16T07:07:29.426Z,5.50
2023-03-16T07:09:52.831Z,5.32
2023-03-16T07:12:16.274Z,6.00
2023-03-16T07:14:42.048Z,5.43
2023-03-16T07:17:07.849Z,5.65
2023-03-16T07:19:31.505Z,5.85
2023-03-16T07:21:57.994Z,6.05
2023-03-16T07:24:22.563Z,5.97
2023-03-16T07:26:46.820Z,5.63
2023-03-16T07:29:19.421Z,6.00
2023-03-16T07:31:44.377Z,5.75
2023-03-16T07:34:13.179Z,6.38
2023-03-16T07:36:43.982Z,5.88
2023-03-16T07:39:07.990Z,6.03
2023-03-16T07:41:32.775Z,6.00
2023-03-16T07:44:10.620Z,5.97
2023-03-16T07:46:34.135Z,6.25
2023-03-16T07:48:59.102Z,6.28
2023-03-16T07:51:23.973Z,6.10
2023-03-16T07:53:48.461Z,6.00
2023-03-16T07:56:21.422Z,6.28
2023-03-16T07:58:48.746Z,6.85
2023-03-16T08:01:12.643Z,5.93
2023-03-16T08:03:36.076Z,5.45
2023-03-16T08:06:01.164Z,5.90
2023-03-16T08:08:24.619Z,6.75
2023-03-16T08:10:51.651Z,5.90
2023-03-16T08:13:17.758Z,6.07
2023-03-16T08:15:42.326Z,5.93
2023-03-16T08:18:13.930Z,6.38
2023-03-16T08:20:37.423Z,6.25
2023-03-16T08:23:02.112Z,6.68
2023-03-16T08:25:32.716Z,6.00
2023-03-16T08:28:02.301Z,5.70
2023-03-16T08:30:27.163Z,5.43
2023-03-16T08:33:07.068Z,5.85
2023-03-16T08:35:31.012Z,5.70
2023-03-16T08:37:54.336Z,5.57
2023-03-16T08:40:22.489Z,5.43
2023-03-16T08:42:46.397Z,5.10
2023-03-16T08:45:14.170Z,6.22
2023-03-16T08:47:40.307Z,5.85
2023-03-16T08:50:03.761Z,5.65
2023-03-16T08:52:27.213Z,5.15
2023-03-16T08:55:02.306Z,5.70
2023-03-16T08:57:28.485Z,6.03
2023-03-16T08:59:52.000Z,6.35
2023-03-16T09:02:15.767Z,6.10
2023-03-16T09:04:39.136Z,6.25
2023-03-16T09:07:08.740Z,6.28
2023-03-16T09:09:34.049Z,5.47
2023-03-16T09:11:57.630Z,5.47
2023-03-16T09:14:22.220Z,5.88
2023-03-16T09:16:45.925Z,5.32
2023-03-16T09:19:09.168Z,5.38
2023-03-16T09:21:32.508Z,5.70
2023-03-16T09:23:56.244Z,5.55
2023-03-16T09:26:20.783Z,6.28
2023-03-16T09:28:44.196Z,5.50
2023-03-16T09:31:10.030Z,4.32
2023-03-16T09:33:34.194Z,4.95
2023-03-16T09:35:58.707Z,4.82
2023-03-16T09:38:22.126Z,4.90
2023-03-16T09:40:47.200Z,5.13
2023-03-16T09:43:26.127Z,5.18
2023-03-16T09:45:57.798Z,5.70
2023-03-16T09:48:25.159Z,5.95
2023-03-16T09:50:49.847Z,5.93
2023-03-16T09:53:24.825Z,6.03
2023-03-16T09:57:02.561Z,5.75
2023-03-16T10:00:02.951Z,5.90
2023-03-16T10:03:50.223Z,6.05
2023-03-16T10:06:16.210Z,5.78
2023-03-16T10:08:44.245Z,5.30
2023-03-16T10:11:24.234Z,5.07
2023-03-16T10:13:55.074Z,4.93
2023-03-16T10:16:22.785Z,4.57
2023-03-16T10:18:48.697Z,4.93
2023-03-16T10:21:20.404Z,5.10
2023-03-16T10:23:46.493Z,5.07
2023-03-16T10:26:18.699Z,5.30
2023-03-16T10:28:43.117Z,4.38
2023-03-16T10:31:07.243Z,4.82
2023-03-16T10:33:33.596Z,4.43
2023-03-16T10:36:03.795Z,4.80
2023-03-16T10:38:38.700Z,4.20
2023-03-16T10:41:02.196Z,4.65
2023-03-16T10:43:26.144Z,4.40
2023-03-16T10:45:49.938Z,5.03
2023-03-16T10:48:18.922Z,4.63
2023-03-16T10:50:44.305Z,4.47
2023-03-16T10:53:21.713Z,4.13
2023-03-16T10:55:50.317Z,4.40
2023-03-16T10:58:25.258Z,4.68
2023-03-16T11:00:48.553Z,4.65
2023-03-16T11:03:23.106Z,4.90
2023-03-16T11:05:47.228Z,5.00
2023-03-16T11:08:17.612Z,4.70
2023-03-16T11:10:55.304Z,4.28
2023-03-16T11:13:22.712Z,5.07
2023-03-16T11:15:53.061Z,4.13
2023-03-16T11:18:30.092Z,3.53
2023-03-16T11:20:54.524Z,4.25
2023-03-16T11:23:22.609Z,3.55
2023-03-16T11:25:49.998Z,3.90
2023-03-16T11:28:17.769Z,3.60
2023-03-16T11:30:48.136Z,3.03
2023-03-16T11:33:14.203Z,3.30
2023-03-16T11:35:58.535Z,3.15
2023-03-16T11:38:29.364Z,3.08
2023-03-16T11:41:00.280Z,2.83
2023-03-16T11:43:49.466Z,3.13
2023-03-16T11:46:20.167Z,3.42
2023-03-16T11:48:52.947Z,3.33
2023-03-16T11:51:36.394Z,3.45
2023-03-16T11:54:20.698Z,3.00
2023-03-16T11:56:48.705Z,2.97
2023-03-16T12:00:03.810Z,3.00
2023-03-16T12:02:54.224Z,3.35
2023-03-16T12:05:45.061Z,3.20
2023-03-16T12:08:31.499Z,3.38
2023-03-16T12:11:02.295Z,3.50
2023-03-16T12:13:41.795Z,3.30
2023-03-16T12:16:13.884Z,3.42
2023-03-16T12:18:45.569Z,3.40
2023-03-16T12:21:15.264Z,3.28
2023-03-16T12:23:44.126Z,3.13
2023-03-16T12:26:08.894Z,3.45
2023-03-16T12:28:34.380Z,3.45
2023-03-16T12:31:10.304Z,3.40
2023-03-16T12:33:52.985Z,4.20
2023-03-16T12:36:58.097Z,3.05
2023-03-16T12:39:37.392Z,3.72
2023-03-16T12:42:15.445Z,3.75
2023-03-16T12:44:47.072Z,3.25
2023-03-16T12:47:22.828Z,3.45
2023-03-16T12:49:48.126Z,3.28
2023-03-16T12:52:14.615Z,3.15
2023-03-16T12:54:38.927Z,3.33
2023-03-16T12:57:05.087Z,2.97
2023-03-16T12:59:40.103Z,3.70
2023-03-16T13:02:06.698Z,3.60
2023-03-16T13:04:34.516Z,3.35
2023-03-16T13:07:07.650Z,3.25
2023-03-16T13:09:32.702Z,2.83
2023-03-16T13:11:56.199Z,3.05
2023-03-16T13:14:38.790Z,3.28
2023-03-16T13:17:12.410Z,2.97
2023-03-16T13:19:37.899Z,3.05
2023-03-16T13:22:08.347Z,3.25
2023-03-16T13:24:40.914Z,3.05
2023-03-16T13:27:11.501Z,3.20
2023-03-16T13:29:37.180Z,3.80
2023-03-16T13:32:08.673Z,2.70
2023-03-16T13:34:37.160Z,2.83
2023-03-16T13:37:02.748Z,3.10
2023-03-16T13:39:28.539Z,3.22
2023-03-16T13:42:00.691Z,2.63
2023-03-16T13:44:25.342Z,2.30
2023-03-16T13:46:50.802Z,2.95
2023-03-16T13:49:14.121Z,2.92
2023-03-16T13:51:39.998Z,3.10
2023-03-16T13:54:20.434Z,2.80
2023-03-16T13:56:44.681Z,2.67
2023-03-16T13:59:10.664Z,2.95
2023-03-16T14:01:34.235Z,2.90
2023-03-16T14:04:00.536Z,2.92
2023-03-16T14:06:26.831Z,2.58
2023-03-16T14:08:53.528Z,2.60
2023-03-16T14:11:18.250Z,2.22
2023-03-16T14:13:42.025Z,2.25
2023-03-16T14:16:13.682Z,2.60
2023-03-16T14:18:41.728Z,2.47
2023-03-16T14:21:09.986Z,2.03
2023-03-16T14:23:39.072Z,2.60
2023-03-16T14:26:05.769Z,2.50
2023-03-16T14:28:34.069Z,2.50
2023-03-16T14:31:07.314Z,2.47
2023-03-16T14:33:33.329Z,2.38
2023-03-16T14:35:58.329Z,2.55
2023-03-16T14:38:23.495Z,2.30
2023-03-16T14:40:54.816Z,2.05
2023-03-16T14:43:18.232Z,2.13
2023-03-16T14:45:43.168Z,2.17
2023-03-16T14:48:10.935Z,2.10
2023-03-16T14:50:34.839Z,1.90
2023-03-16T14:52:58.525Z,2.00
2023-03-16T14:55:22.857Z,1.70
2023-03-16T14:57:47.309Z,2.03
2023-03-16T15:00:13.076Z,2.05
2023-03-16T15:02:38.270Z,1.52
2023-03-16T15:05:03.700Z,1.77
2023-03-16T15:07:30.542Z,1.73
2023-03-16T15:09:55.537Z,1.70
2023-03-16T15:12:21.790Z,1.90
2023-03-16T15:15:02.749Z,1.77
2023-03-16T15:17:26.058Z,1.77
2023-03-16T15:19:51.487Z,1.98
2023-03-16T15:22:15.233Z,2.33
2023-03-16T15:24:38.503Z,1.58
2023-03-16T15:27:02.012Z,1.70
2023-03-16T15:29:25.630Z,1.90
2023-03-16T15:31:49.003Z,1.83
2023-03-16T15:34:12.424Z,1.83
2023-03-16T15:36:37.499Z,1.95
2023-03-16T15:39:02.063Z,2.00
2023-03-16T15:41:30.166Z,2.35
2023-03-16T15:44:00.666Z,1.90
2023-03-16T15:46:24.088Z,1.98
2023-03-16T15:48:47.804Z,1.70
2023-03-16T15:51:22.848Z,2.15
2023-03-16T15:53:52.211Z,2.00
2023-03-16T15:56:19.740Z,2.10
2023-03-16T15:58:45.760Z,2.00
2023-03-16T16:01:14.409Z,2.45
2023-03-16T16:03:38.240Z,2.38
2023-03-16T16:06:01.949Z,2.20
2023-03-16T16:08:25.266Z,2.28
2023-03-16T16:10:53.395Z,2.00
2023-03-16T16:13:22.230Z,2.30
2023-03-16T16:15:47.990Z,1.90
2023-03-16T16:18:30.200Z,1.85
2023-03-16T16:20:53.867Z,2.15
2023-03-16T16:23:18.061Z,2.10
2023-03-16T16:25:43.651Z,2.00
2023-03-16T16:28:15.743Z,2.47
2023-03-16T16:30:39.838Z,2.25
2023-03-16T16:33:03.311Z,2.05
2023-03-16T16:35:29.522Z,2.20
2023-03-16T16:37:53.443Z,1.98
2023-03-16T16:40:19.480Z,2.50
2023-03-16T16:42:42.933Z,2.22
2023-03-16T16:45:15.606Z,2.50
2023-03-16T16:47:38.869Z,2.20
2023-03-16T16:50:02.229Z,2.13
2023-03-16T16:52:25.595Z,2.30
2023-03-16T16:54:48.809Z,2.30
2023-03-16T16:57:19.333Z,2.50
2023-03-16T16:59:44.840Z,2.40
2023-03-16T17:02:24.844Z,2.40
2023-03-16T17:04:50.601Z,2.53
2023-03-16T17:07:14.229Z,2.45
2023-03-16T17:09:37.554Z,2.70
2023-03-16T17:12:02.389Z,2.28
2023-03-16T17:14:28.178Z,2.70
2023-03-16T17:16:51.850Z,2.70
2023-03-16T17:19:22.469Z,2.63
2023-03-16T17:21:46.445Z,2.40
2023-03-16T17:24:10.373Z,2.20
2023-03-16T17:26:38.353Z,2.70
2023-03-16T17:29:06.185Z,2.67
2023-03-16T17:31:36.350Z,2.83
2023-03-16T17:33:59.898Z,2.42
2023-03-16T17:36:25.190Z,3.03
2023-03-16T17:38:49.927Z,3.00
2023-03-16T17:41:23.933Z,3.30
2023-03-16T17:43:47.936Z,3.30
2023-03-16T17:46:11.773Z,3.38
2023-03-16T17:48:35.200Z,3.05
2023-03-16T17:50:58.541Z,3.05
2023-03-16T17:53:23.209Z,3.00
2023-03-16T17:55:47.950Z,3.28
2023-03-16T17:58:24.743Z,3.47
2023-03-16T18:00:49.383Z,3.05
2023-03-16T18:03:17.271Z,3.13
2023-03-16T18:05:41.811Z,3.60
2023-03-16T18:08:15.727Z,3.25
2023-03-16T18:10:41.210Z,3.53
2023-03-16T18:13:08.856Z,3.22
2023-03-16T18:15:37.581Z,3.13
2023-03-16T18:18:02.400Z,3.33
2023-03-16T18:20:31.320Z,3.97
2023-03-16T18:22:56.159Z,3.47
2023-03-16T18:25:35.251Z,3.40
2023-03-16T18:28:00.273Z,3.55
2023-03-16T18:30:23.513Z,3.70
2023-03-16T18:32:46.987Z,4.03
2023-03-16T18:35:16.764Z,3.65
2023-03-16T18:37:40.121Z,4.03
2023-03-16T18:40:03.411Z,3.47
2023-03-16T18:42:28.864Z,3.83
2023-03-16T18:44:53.575Z,4.15
2023-03-16T18:47:19.688Z,4.05
2023-03-16T18:49:43.660Z,3.72
2023-03-16T18:52:22.186Z,3.35
2023-03-16T18:54:46.632Z,3.67
2023-03-16T18:57:18.418Z,3.70
2023-03-16T18:59:41.738Z,3.67
2023-03-16T19:02:11.836Z,4.03
2023-03-16T19:04:36.149Z,3.58
2023-03-16T19:06:59.607Z,4.00
2023-03-16T19:09:26.632Z,3.28
2023-03-16T19:11:50.413Z,3.55
2023-03-16T19:14:18.520Z,3.55
2023-03-16T19:16:41.851Z,3.72
2023-03-16T19:19:07.043Z,3.47
2023-03-16T19:21:32.687Z,3.78
2023-03-16T19:24:00.464Z,3.40
2023-03-16T19:26:23.880Z,3.25
2023-03-16T19:28:47.277Z,4.03
2023-03-16T19:31:19.680Z,3.25
2023-03-16T19:33:43.229Z,3.75
2023-03-16T19:36:17.242Z,3.45
2023-03-16T19:38:41.181Z,3.20
2023-03-16T19:41:04.498Z,3.25
2023-03-16T19:43:28.829Z,3.38
2023-03-16T19:45:52.702Z,3.40
2023-03-16T19:48:20.388Z,3.10
2023-03-16T19:50:43.736Z,2.85
2023-03-16T19:53:18.031Z,3.13
2023-03-16T19:55:41.345Z,2.88
2023-03-16T19:58:07.595Z,3.03
2023-03-16T20:00:31.439Z,2.63
2023-03-16T20:02:56.475Z,2.78
2023-03-16T20:05:22.921Z,2.60
2023-03-16T20:07:46.233Z,2.40
2023-03-16T20:10:17.475Z,2.42
2023-03-16T20:12:43.030Z,2.97
2023-03-16T20:15:07.282Z,2.45
2023-03-16T20:17:32.919Z,2.70
2023-03-16T20:19:57.724Z,3.20
2023-03-16T20:22:24.456Z,2.67
2023-03-16T20:24:49.393Z,3.05
2023-03-16T20:27:14.320Z,2.80
2023-03-16T20:29:37.590Z,2.83
2023-03-16T20:32:02.094Z,3.15
2023-03-16T20:34:28.725Z,3.05
2023-03-16T20:36:52.196Z,2.72
2023-03-16T20:39:15.552Z,3.10
2023-03-16T20:41:39.331Z,2.97
2023-03-16T20:44:04.868Z,3.10
2023-03-16T20:46:31.342Z,3.10
2023-03-16T20:48:54.860Z,3.10
2023-03-16T20:51:18.779Z,3.08
2023-03-16T20:53:43.686Z,3.30
2023-03-16T20:56:15.122Z,2.72
2023-03-16T20:58:39.472Z,2.83
2023-03-16T21:01:04.205Z,3.45
2023-03-16T21:03:30.622Z,3.45
2023-03-16T21:05:55.487Z,3.58
2023-03-16T21:08:20.413Z,3.10
2023-03-16T21:10:44.630Z,3.47
2023-03-16T21:13:10.837Z,3.70
2023-03-16T21:15:35.230Z,3.33
2023-03-16T21:18:02.890Z,3.25
2023-03-16T21:20:28.988Z,3.10
2023-03-16T21:22:52.344Z,3.20
2023-03-16T21:25:24.520Z,4.03
2023-03-16T21:27:49.648Z,3.60
2023-03-16T21:30:26.240Z,3.08
2023-03-16T21:32:49.787Z,3.80
2023-03-16T21:35:17.104Z,3.08
2023-03-16T21:37:41.041Z,3.60
2023-03-16T21:40:09.616Z,3.50
2023-03-16T21:42:32.866Z,3.10
2023-03-16T21:44:56.051Z,3.65
2023-03-16T21:47:26.290Z,3.55
2023-03-16T21:49:50.263Z,3.25
2023-03-16T21:52:24.258Z,4.18
2023-03-16T21:54:47.611Z,3.33
2023-03-16T21:57:15.241Z,4.28
2023-03-16T21:59:38.545Z,3.28
2023-03-16T22:02:02.594Z,3.42
2023-03-16T22:04:26.131Z,3.45
2023-03-16T22:06:49.392Z,3.70
2023-03-16T22:09:19.413Z,3.13
2023-03-16T22:11:42.730Z,3.38
2023-03-16T22:14:09.872Z,3.20
2023-03-16T22:16:37.864Z,3.30
2023-03-16T22:19:01.206Z,2.90
2023-03-16T22:21:30.681Z,3.20
2023-03-16T22:23:55.460Z,3.42
2023-03-16T22:26:22.528Z,3.10
2023-03-16T22:28:46.645Z,3.15
2023-03-16T22:31:12.044Z,2.92
2023-03-16T22:33:37.817Z,3.08
2023-03-16T22:36:08.417Z,3.40
2023-03-16T22:38:31.778Z,2.92
2023-03-16T22:40:55.599Z,3.30
2023-03-16T22:43:25.520Z,2.63
2023-03-16T22:45:49.203Z,2.65
2023-03-16T22:48:22.895Z,2.70
2023-03-16T22:50:48.213Z,2.80
2023-03-16T22:53:19.106Z,3.03
2023-03-16T22:55:42.456Z,3.13
2023-03-16T22:58:12.147Z,2.60
2023-03-16T23:00:38.238Z,2.90
2023-03-16T23:03:02.219Z,2.90
2023-03-16T23:05:29.278Z,2.83
2023-03-16T23:07:53.592Z,2.83
2023-03-16T23:10:19.063Z,3.13
2023-03-16T23:12:42.713Z,2.58
2023-03-16T23:15:17.918Z,2.60
2023-03-16T23:17:42.614Z,3.05
2023-03-16T23:20:18.533Z,3.17
2023-03-16T23:22:42.250Z,2.55
2023-03-16T23:25:06.492Z,2.83
2023-03-16T23:27:29.882Z,2.83
2023-03-16T23:29:53.175Z,2.60
2023-03-16T23:32:17.879Z,2.50
2023-03-16T23:34:42.657Z,2.65
2023-03-16T23:37:06.028Z,2.35
2023-03-16T23:39:29.483Z,2.20
2023-03-16T23:41:53.889Z,2.50
2023-03-16T23:44:18.887Z,1.98
2023-03-16T23:46:42.098Z,2.70
2023-03-16T23:49:06.472Z,2.22
2023-03-16T23:51:35.277Z,2.53
2023-03-16T23:53:59.389Z,2.65
2023-03-16T23:56:23.342Z,2.20
2023-03-16T23:58:46.834Z,2.47
